createdAt,value
2023-01-20T00:35:54.170Z,2600.00
2023-01-20T00:36:54.138Z,2594.00
2023-01-20T00:37:54.110Z,2589.00
2023-01-20T00:38:54.075Z,2582.00
2023-01-20T00:40:54.012Z,2576.00
2023-01-20T00:41:53.987Z,2571.00
2023-01-20T00:43:53.910Z,2567.00
2023-01-20T00:44:53.962Z,2569.00
2023-01-20T00:45:53.849Z,2569.00
2023-01-20T00:46:53.886Z,2568.00
2023-01-20T00:47:53.790Z,2566.00
2023-01-20T00:48:53.756Z,2565.00
2023-01-20T00:49:53.750Z,2561.00
2023-01-20T00:50:53.710Z,2555.00
2023-01-20T00:51:53.683Z,2550.00
2023-01-20T00:52:53.682Z,2546.00
2023-01-20T00:53:53.623Z,2541.00
2023-01-20T00:54:53.599Z,2537.00
2023-01-20T00:55:53.572Z,2534.00
2023-01-20T00:56:53.545Z,2532.00
2023-01-20T00:57:53.518Z,2525.00
2023-01-20T00:58:53.477Z,2522.00
2023-01-20T00:59:53.431Z,2520.00
2023-01-20T01:00:53.519Z,2517.00
2023-01-20T01:01:53.480Z,2513.00
2023-01-20T01:02:55.011Z,2505.00
2023-01-20T01:03:53.324Z,2498.00
2023-01-20T01:04:53.292Z,2498.00
2023-01-20T01:05:53.251Z,2492.00
2023-01-20T01:06:53.222Z,2490.00
2023-01-20T01:07:53.188Z,2487.00
2023-01-20T01:10:53.106Z,2474.00
2023-01-20T01:15:53.035Z,2460.00
2023-01-20T01:27:52.739Z,2427.00
2023-01-20T01:39:52.329Z,2399.00
2023-01-20T03:57:46.843Z,2044.00
2023-01-20T03:58:46.790Z,2045.00
2023-01-20T03:59:46.715Z,2044.00
2023-01-20T04:00:46.663Z,2040.00
2023-01-20T04:01:46.770Z,2042.00
2023-01-20T04:02:46.554Z,2044.00
2023-01-20T04:03:46.549Z,2045.00
2023-01-20T04:04:46.431Z,2046.00
2023-01-20T04:05:46.358Z,2044.00
2023-01-20T04:06:46.306Z,2040.00
2023-01-20T04:07:46.249Z,2036.00
2023-01-20T04:08:46.201Z,2031.00
2023-01-20T04:09:46.118Z,2026.00
2023-01-20T04:10:46.061Z,2025.00
2023-01-20T04:11:46.001Z,2027.00
2023-01-20T04:12:45.948Z,2023.00
2023-01-20T04:13:45.961Z,2020.00
2023-01-20T04:14:45.821Z,2019.00
2023-01-20T04:15:45.834Z,2020.00
2023-01-20T04:16:45.712Z,2018.00
2023-01-20T04:17:45.653Z,2013.00
2023-01-20T04:18:45.584Z,2010.00
2023-01-20T04:19:45.545Z,2007.00
2023-01-20T04:22:45.618Z,2003.00
2023-01-20T06:23:38.521Z,1742.00
2023-01-20T06:24:38.476Z,1739.00
2023-01-20T06:26:39.147Z,1740.00
2023-01-20T06:27:38.306Z,1746.00
2023-01-20T06:28:38.248Z,1756.00
2023-01-20T06:30:38.186Z,1837.00
2023-01-20T06:31:38.140Z,1858.00
2023-01-20T06:32:38.035Z,1964.00
2023-01-20T06:33:37.952Z,1958.00
2023-01-20T06:34:37.886Z,1970.00
2023-01-20T06:35:37.859Z,1982.00
2023-01-20T06:36:37.717Z,2017.00
2023-01-20T06:37:37.634Z,2113.00
2023-01-20T06:38:37.609Z,2107.00
2023-01-20T06:39:37.681Z,2135.00
2023-01-20T06:40:37.567Z,2146.00
2023-01-20T06:41:37.555Z,2166.00
2023-01-20T06:42:37.536Z,2230.00
2023-01-20T06:43:37.493Z,2241.00
2023-01-20T06:44:37.474Z,2252.00
2023-01-20T06:45:37.432Z,2269.00
2023-01-20T06:46:37.447Z,2288.00
2023-01-20T06:47:37.376Z,2343.00
2023-01-20T06:48:37.345Z,2404.00
2023-01-20T06:49:37.320Z,2417.00
2023-01-20T06:50:37.313Z,2417.00
2023-01-20T06:51:37.264Z,2435.00
2023-01-20T06:52:37.231Z,2466.00
2023-01-20T06:53:37.174Z,2571.00
2023-01-20T06:54:37.153Z,2562.00
2023-01-20T06:55:37.086Z,2576.00
2023-01-20T06:56:37.043Z,2628.00
2023-01-20T06:57:37.163Z,2635.00
2023-01-20T06:58:36.953Z,2640.00
2023-01-20T06:59:36.911Z,2658.00
2023-01-20T07:00:36.925Z,2699.00
2023-01-20T07:01:37.699Z,2708.00
2023-01-20T07:02:36.818Z,2747.00
2023-01-20T07:03:36.709Z,2763.00
2023-01-20T07:04:36.660Z,2791.00
2023-01-20T07:05:36.601Z,2813.00
2023-01-20T07:06:36.628Z,2843.00
2023-01-20T07:07:36.490Z,2883.00
2023-01-20T07:08:36.441Z,2894.00
2023-01-20T07:09:36.675Z,2908.00
2023-01-20T07:10:36.334Z,2931.00
2023-01-20T07:11:37.188Z,2958.00
2023-01-20T07:12:36.214Z,2989.00
2023-01-20T07:13:36.147Z,3027.00
2023-01-20T07:14:36.083Z,3046.00
2023-01-20T07:15:36.038Z,3147.00
2023-01-20T07:16:36.079Z,3144.00
2023-01-20T07:17:36.199Z,3163.00
2023-01-20T07:18:35.832Z,3188.00
2023-01-20T07:19:35.766Z,3205.00
2023-01-20T07:20:35.693Z,3221.00
2023-01-20T07:21:35.625Z,3277.00
2023-01-20T07:22:35.567Z,3304.00
2023-01-20T07:23:35.526Z,1871.00
2023-01-20T07:24:35.517Z,2336.00
2023-01-20T07:30:36.613Z,2304.00
2023-01-20T07:54:37.174Z,2803.00
2023-01-20T08:35:30.670Z,2813.00
2023-01-20T08:37:30.531Z,2863.00
2023-01-20T08:38:30.468Z,2880.00
2023-01-20T08:40:30.321Z,2928.00
2023-01-20T08:42:30.178Z,2994.00
2023-01-20T08:43:30.103Z,3015.00
2023-01-20T08:44:30.033Z,3052.00
2023-01-20T08:45:29.954Z,3070.00
2023-01-20T08:46:29.938Z,3108.00
2023-01-20T08:47:29.799Z,3126.00
2023-01-20T08:48:29.716Z,3144.00
2023-01-20T08:49:29.695Z,3164.00
2023-01-20T08:50:29.553Z,3191.00
2023-01-20T08:51:29.529Z,3219.00
2023-01-20T09:31:26.656Z,1981.00
2023-01-20T09:32:27.208Z,1977.00
2023-01-20T09:33:27.216Z,1977.00
2023-01-20T09:34:27.264Z,1979.00
2023-01-20T09:35:26.422Z,1981.00
2023-01-20T09:36:28.476Z,1981.00
2023-01-20T09:37:26.315Z,1978.00
2023-01-20T09:38:26.274Z,1972.00
2023-01-20T09:39:26.228Z,1970.00
2023-01-20T09:40:26.204Z,1968.00
2023-01-20T09:41:26.149Z,1969.00
2023-01-20T09:42:26.193Z,1966.00
2023-01-20T09:43:26.084Z,1965.00
2023-01-20T09:44:26.043Z,1965.00
2023-01-20T09:45:26.007Z,1962.00
2023-01-20T09:46:25.997Z,1963.00
2023-01-20T09:47:25.919Z,1962.00
2023-01-20T09:48:25.887Z,1964.00
2023-01-20T09:49:25.851Z,1961.00
2023-01-20T09:50:25.810Z,1965.00
2023-01-20T09:51:25.755Z,1962.00
2023-01-20T09:52:25.722Z,1961.00
2023-01-20T09:53:25.703Z,1961.00
2023-01-20T09:54:25.640Z,1959.00
2023-01-20T09:55:25.610Z,1955.00
2023-01-20T09:58:25.520Z,1948.00
2023-01-20T10:08:25.724Z,1941.00
2023-01-20T10:51:23.200Z,2357.00
2023-01-20T10:52:23.095Z,2358.00
2023-01-20T10:53:23.010Z,2356.00
2023-01-20T10:54:22.921Z,2362.00
2023-01-20T10:55:22.841Z,2368.00
2023-01-20T10:56:22.791Z,2376.00
2023-01-20T10:57:22.704Z,2393.00
2023-01-20T10:58:22.598Z,2419.00
2023-01-20T10:59:22.601Z,2427.00
2023-01-20T11:00:22.414Z,2437.00
2023-01-20T11:01:23.191Z,2461.00
2023-01-20T11:02:22.300Z,2480.00
2023-01-20T11:03:22.241Z,2491.00
2023-01-20T11:04:22.043Z,2506.00
2023-01-20T11:05:21.938Z,2518.00
2023-01-20T11:06:21.838Z,2542.00
2023-01-20T11:07:21.809Z,2556.00
2023-01-20T11:08:21.718Z,2571.00
2023-01-20T11:09:22.261Z,2586.00
2023-01-20T11:10:21.418Z,2605.00
2023-01-20T11:11:21.332Z,2614.00
2023-01-20T11:12:21.342Z,2618.00
2023-01-20T11:13:21.187Z,2623.00
2023-01-20T11:14:21.051Z,2631.00
2023-01-20T11:15:20.947Z,2648.00
2023-01-20T11:16:20.871Z,2719.00
2023-01-20T11:17:20.773Z,2739.00
2023-01-20T11:18:20.686Z,2742.00
2023-01-20T11:19:20.617Z,2805.00
2023-01-20T11:20:20.509Z,2807.00
2023-01-20T11:21:20.433Z,2812.00
2023-01-20T11:22:20.361Z,2835.00
2023-01-20T11:23:20.268Z,2873.00
2023-01-20T11:24:20.194Z,2915.00
2023-01-20T11:25:20.119Z,2910.00
2023-01-20T11:26:20.042Z,2933.00
2023-01-20T11:27:19.979Z,2929.00
2023-01-20T11:28:19.912Z,2951.00
2023-01-20T11:29:19.866Z,3040.00
2023-01-20T11:30:19.785Z,3051.00
2023-01-20T11:31:19.767Z,3060.00
2023-01-20T11:32:19.625Z,3093.00
2023-01-20T11:33:19.583Z,3106.00
2023-01-20T11:34:19.484Z,3119.00
2023-01-20T11:35:19.440Z,3198.00
2023-01-20T11:36:19.356Z,3194.00
2023-01-20T11:37:19.276Z,3220.00
2023-01-20T11:38:19.221Z,3288.00
2023-01-20T11:39:19.163Z,3298.00
2023-01-20T11:40:19.726Z,3310.00
2023-01-20T11:41:19.025Z,3343.00
2023-01-20T11:42:18.945Z,3376.00
2023-01-20T11:43:18.873Z,3397.00
2023-01-20T11:44:18.872Z,3409.00
2023-01-20T11:45:21.505Z,3470.00
2023-01-20T11:46:18.624Z,3468.00
2023-01-20T11:47:18.488Z,3485.00
2023-01-20T11:48:18.409Z,3495.00
2023-01-20T11:49:18.295Z,3510.00
2023-01-20T11:50:18.333Z,3553.00
2023-01-20T11:51:18.177Z,3571.00
2023-01-20T11:52:18.796Z,3580.00
2023-01-20T11:53:17.971Z,3592.00
2023-01-20T11:54:17.798Z,3605.00
2023-01-20T11:55:17.627Z,3618.00
2023-01-20T11:56:17.497Z,3629.00
2023-01-20T11:57:17.381Z,3650.00
2023-01-20T11:58:17.292Z,3666.00
2023-01-20T11:59:17.173Z,3674.00
2023-01-20T12:00:17.433Z,3680.00
2023-01-20T12:01:16.934Z,3688.00
2023-01-20T12:02:16.966Z,3699.00
2023-01-20T12:03:16.715Z,3709.00
2023-01-20T12:04:16.671Z,3720.00
2023-01-20T12:05:16.491Z,3726.00
2023-01-20T12:06:16.396Z,3724.00
2023-01-20T12:07:16.279Z,3727.00
2023-01-20T12:08:16.182Z,3732.00
2023-01-20T12:09:16.062Z,3738.00
2023-01-20T12:10:16.378Z,3731.00
2023-01-20T12:11:15.844Z,3702.00
2023-01-20T12:12:15.745Z,3687.00
2023-01-20T12:13:15.644Z,3684.00
2023-01-20T12:14:15.533Z,3679.00
2023-01-20T12:40:14.123Z,3563.00
2023-01-20T12:41:13.018Z,3559.00
2023-01-20T12:42:12.978Z,3557.00
2023-01-20T12:43:12.945Z,3558.00
2023-01-20T12:44:12.917Z,3558.00
2023-01-20T12:45:12.947Z,3561.00
2023-01-20T12:46:12.862Z,3556.00
2023-01-20T12:47:12.822Z,3548.00
2023-01-20T12:48:12.870Z,3547.00
2023-01-20T13:14:11.919Z,3429.00
2023-01-20T13:15:11.888Z,3427.00
2023-01-20T13:16:11.843Z,3423.00
2023-01-20T13:17:11.809Z,3420.00
2023-01-20T13:18:11.797Z,3422.00
2023-01-20T13:19:11.753Z,3415.00
2023-01-20T13:20:11.696Z,3411.00
2023-01-20T13:21:11.646Z,3406.00
2023-01-20T13:22:11.624Z,3405.00
2023-01-20T13:23:11.608Z,3401.00
2023-01-20T13:24:11.574Z,3401.00
2023-01-20T13:25:11.558Z,3400.00
2023-01-20T13:26:11.513Z,3395.00
2023-01-20T13:27:11.483Z,3398.00
2023-01-20T13:28:11.433Z,3391.00
2023-01-20T13:29:11.411Z,3388.00
2023-01-20T13:30:11.434Z,3388.00
2023-01-20T13:31:11.416Z,3386.00
2023-01-20T13:32:11.261Z,3382.00
2023-01-20T13:33:11.214Z,3379.00
2023-01-20T13:34:11.154Z,3373.00
2023-01-20T13:35:11.094Z,3373.00
2023-01-20T13:36:11.102Z,3372.00
2023-01-20T13:37:10.930Z,3372.00
2023-01-20T13:38:10.861Z,3370.00
2023-01-20T13:39:10.771Z,3365.00
2023-01-20T13:40:10.714Z,3363.00
2023-01-20T13:41:10.635Z,3359.00
2023-01-20T13:42:10.559Z,3353.00
2023-01-20T13:43:10.475Z,3355.00
2023-01-20T13:44:10.393Z,3349.00
2023-01-20T13:45:10.322Z,3350.00
2023-01-20T13:46:10.261Z,3344.00
2023-01-20T13:47:10.147Z,3341.00
2023-01-20T13:48:10.055Z,3329.00
2023-01-20T13:49:09.982Z,3327.00
2023-01-20T13:50:09.988Z,3317.00
2023-01-20T13:51:09.797Z,3314.00
2023-01-20T13:52:09.775Z,3313.00
2023-01-20T13:53:09.649Z,3308.00
2023-01-20T13:54:09.567Z,3310.00
2023-01-20T13:55:09.490Z,3312.00
2023-01-20T13:56:09.417Z,3310.00
2023-01-20T13:58:09.251Z,3305.00
2023-01-20T13:59:09.176Z,3299.00
2023-01-20T14:00:09.104Z,3295.00
2023-01-20T14:01:09.082Z,3290.00
2023-01-20T14:02:08.966Z,3289.00
2023-01-20T14:03:09.887Z,3286.00
2023-01-20T14:04:08.818Z,3286.00
2023-01-20T14:05:08.737Z,3280.00
2023-01-20T14:06:08.659Z,3275.00
2023-01-20T14:07:08.583Z,3265.00
2023-01-20T14:08:08.565Z,3264.00
2023-01-20T14:09:09.383Z,3264.00
2023-01-20T14:10:08.421Z,3262.00
2023-01-20T14:11:08.305Z,3264.00
2023-01-20T14:12:08.298Z,3256.00
2023-01-20T14:13:08.156Z,3253.00
2023-01-20T14:14:08.075Z,3247.00
2023-01-20T14:15:09.229Z,3244.00
2023-01-20T14:16:07.978Z,3243.00
2023-01-20T14:17:07.875Z,3242.00
2023-01-20T14:18:07.871Z,3238.00
2023-01-20T14:19:08.321Z,3236.00
2023-01-20T14:20:07.676Z,3236.00
2023-01-20T14:21:07.597Z,3232.00
2023-01-20T14:22:07.523Z,3229.00
2023-01-20T14:23:07.453Z,3224.00
2023-01-20T14:24:07.394Z,3223.00
2023-01-20T14:25:07.324Z,3215.00
2023-01-20T14:32:06.882Z,3195.00
2023-01-20T14:33:06.785Z,3197.00
2023-01-20T14:34:06.729Z,3195.00
2023-01-20T14:35:06.649Z,3191.00
2023-01-20T14:36:06.585Z,3183.00
2023-01-20T14:37:06.505Z,3176.00
2023-01-20T14:38:06.433Z,3173.00
2023-01-20T14:39:07.394Z,3169.00
2023-01-20T14:40:06.317Z,3166.00
2023-01-20T14:41:06.366Z,3162.00
2023-01-20T14:42:06.183Z,3157.00
2023-01-20T14:43:06.154Z,3154.00
2023-01-20T14:44:06.055Z,3154.00
2023-01-20T14:45:06.041Z,3145.00
2023-01-20T14:46:05.963Z,3143.00
2023-01-20T14:47:05.886Z,3140.00
2023-01-20T14:48:05.816Z,3136.00
2023-01-20T14:49:05.762Z,3135.00
2023-01-20T14:50:05.720Z,3130.00
2023-01-20T14:51:05.621Z,3131.00
2023-01-20T14:52:05.567Z,3128.00
2023-01-20T14:56:05.362Z,3116.00
2023-01-20T14:57:05.304Z,3112.00
2023-01-20T14:58:05.199Z,3113.00
2023-01-20T14:59:05.159Z,3113.00
2023-01-20T15:00:05.093Z,3113.00
2023-01-20T15:01:05.032Z,3109.00
2023-01-20T15:02:04.979Z,3102.00
2023-01-20T15:03:10.928Z,3095.00
2023-01-20T15:04:05.827Z,3093.00
2023-01-20T15:05:04.738Z,3084.00
2023-01-20T15:06:04.670Z,3080.00
2023-01-20T15:07:04.558Z,3074.00
2023-01-20T15:08:04.468Z,3065.00
2023-01-20T15:09:07.415Z,3064.00
2023-01-20T15:10:04.290Z,3062.00
2023-01-20T15:11:04.201Z,3061.00
2023-01-20T15:12:04.105Z,3057.00
2023-01-20T15:13:04.008Z,3057.00
2023-01-20T15:14:03.922Z,3056.00
2023-01-20T15:15:03.875Z,3062.00
2023-01-20T15:16:03.770Z,3063.00
2023-01-20T15:17:03.664Z,3059.00
2023-01-20T15:18:03.570Z,3053.00
2023-01-20T15:19:03.488Z,3044.00
2023-01-20T15:20:03.400Z,3043.00
2023-01-20T15:21:16.247Z,3042.00
2023-01-20T15:22:04.344Z,3038.00
2023-01-20T15:23:03.128Z,3031.00
2023-01-20T15:24:03.339Z,3024.00
2023-01-20T15:25:02.957Z,3020.00
2023-01-20T15:26:03.847Z,3017.00
2023-01-20T15:27:02.798Z,3014.00
2023-01-20T15:28:02.698Z,3009.00
2023-01-20T15:29:02.614Z,3004.00
2023-01-20T15:30:02.534Z,3001.00
2023-01-20T15:31:02.519Z,2996.00
2023-01-20T15:32:02.368Z,2995.00
2023-01-20T15:33:02.262Z,2991.00
2023-01-20T15:34:02.194Z,2991.00
2023-01-20T15:35:02.151Z,2988.00
2023-01-20T15:36:02.117Z,2983.00
2023-01-20T15:37:02.077Z,2981.00
2023-01-20T15:39:02.034Z,2977.00
2023-01-20T15:40:01.958Z,2975.00
2023-01-20T16:59:59.898Z,2727.00
2023-01-20T17:00:59.774Z,2726.00
2023-01-20T17:01:59.746Z,2728.00
2023-01-20T17:02:59.695Z,2725.00
2023-01-20T17:03:59.687Z,2718.00
2023-01-20T17:04:59.716Z,2711.00
2023-01-20T17:05:59.642Z,2705.00
2023-01-20T17:06:59.626Z,2702.00
2023-01-20T17:07:59.606Z,2698.00
2023-01-20T17:08:59.606Z,2694.00
2023-01-20T17:10:00.560Z,2696.00
2023-01-20T17:10:59.549Z,2695.00
2023-01-20T17:11:59.548Z,2692.00
2023-01-20T17:12:59.540Z,2692.00
2023-01-20T17:13:59.517Z,2691.00
2023-01-20T17:14:59.580Z,2689.00
2023-01-20T17:15:59.504Z,2688.00
2023-01-20T17:16:59.490Z,2687.00
2023-01-20T17:17:59.462Z,2688.00
2023-01-20T17:18:59.460Z,2683.00
2023-01-20T17:19:59.462Z,2682.00
2023-01-20T17:20:59.435Z,2672.00
2023-01-20T17:22:00.467Z,2672.00
2023-01-20T17:22:59.396Z,2670.00
2023-01-20T17:23:59.397Z,2670.00
2023-01-20T17:24:59.372Z,2665.00
2023-01-20T17:25:59.364Z,2656.00
2023-01-20T17:26:59.352Z,2654.00
2023-01-20T17:27:59.364Z,2650.00
2023-01-20T17:28:59.333Z,2655.00
2023-01-20T17:29:59.304Z,2655.00
2023-01-20T17:30:59.341Z,2653.00
2023-01-20T17:31:59.300Z,2645.00
2023-01-20T17:32:59.262Z,2646.00
2023-01-20T17:33:59.272Z,2645.00
2023-01-20T17:34:59.242Z,2643.00
2023-01-20T17:35:59.216Z,2642.00
2023-01-20T17:36:59.247Z,2643.00
2023-01-20T17:37:59.183Z,2642.00
2023-01-20T17:38:59.180Z,2638.00
2023-01-20T17:39:59.157Z,2633.00
2023-01-20T17:40:59.144Z,2629.00
2023-01-20T17:41:59.117Z,2623.00
2023-01-20T17:42:59.117Z,2623.00
2023-01-20T17:43:59.101Z,2621.00
2023-01-20T17:44:59.079Z,2624.00
2023-01-20T17:45:59.102Z,2627.00
2023-01-20T17:46:59.048Z,2623.00
2023-01-20T17:47:59.001Z,2619.00
2023-01-20T17:48:58.980Z,2621.00
2023-01-20T17:49:58.951Z,2616.00
2023-01-20T18:03:58.339Z,2580.00
2023-01-20T18:04:58.399Z,2579.00
2023-01-20T18:05:58.224Z,2580.00
2023-01-20T18:06:58.143Z,2576.00
2023-01-20T18:07:58.084Z,2576.00
2023-01-20T18:08:58.026Z,2575.00
2023-01-20T18:09:57.915Z,2567.00
2023-01-20T18:10:57.860Z,2563.00
2023-01-20T18:11:57.815Z,2559.00
2023-01-20T18:12:57.814Z,2555.00
2023-01-20T18:13:57.676Z,2551.00
2023-01-20T18:14:57.612Z,2543.00
2023-01-20T18:15:57.550Z,2542.00
2023-01-20T18:16:57.571Z,2543.00
2023-01-20T18:17:57.425Z,2540.00
2023-01-20T18:18:57.383Z,2538.00
2023-01-20T18:19:57.391Z,2535.00
2023-01-20T18:20:57.278Z,2531.00
2023-01-20T18:21:57.230Z,2531.00
2023-01-20T18:22:57.156Z,2528.00
2023-01-20T18:23:57.121Z,2522.00
2023-01-20T18:24:57.053Z,2522.00
2023-01-20T18:25:57.026Z,2522.00
2023-01-20T18:26:57.924Z,2520.00
2023-01-20T18:27:56.908Z,2516.00
2023-01-20T18:28:56.875Z,2513.00
2023-01-20T18:29:56.898Z,2512.00
2023-01-20T18:30:56.878Z,2509.00
2023-01-20T18:31:56.852Z,2505.00
2023-01-20T18:32:56.727Z,2503.00
2023-01-20T18:33:56.678Z,2502.00
2023-01-20T18:34:56.637Z,2498.00
2023-01-20T18:35:56.594Z,2497.00
2023-01-20T18:36:56.541Z,2493.00
2023-01-20T18:37:56.516Z,2490.00
2023-01-20T18:38:56.571Z,2484.00
2023-01-20T18:39:56.464Z,2480.00
2023-01-20T18:40:56.437Z,2479.00
2023-01-20T18:41:56.408Z,2478.00
2023-01-20T18:42:56.912Z,2472.00
2023-01-20T18:43:56.384Z,2470.00
2023-01-20T18:44:56.349Z,2465.00
2023-01-20T18:45:56.359Z,2462.00
2023-01-20T18:46:56.301Z,2461.00
2023-01-20T18:47:56.294Z,2459.00
2023-01-20T18:48:56.442Z,2459.00
2023-01-20T18:49:56.248Z,2455.00
2023-01-20T18:50:56.263Z,2453.00
2023-01-20T18:51:56.185Z,2448.00
2023-01-20T18:52:56.148Z,2446.00
2023-01-20T18:53:56.087Z,2446.00
2023-01-20T18:54:56.020Z,2443.00
2023-01-20T18:55:55.978Z,2444.00
2023-01-20T18:56:55.903Z,2446.00
2023-01-20T18:57:55.832Z,2444.00
2023-01-20T18:58:55.784Z,2440.00
2023-01-20T18:59:55.793Z,2436.00
2023-01-20T19:00:55.728Z,2433.00
2023-01-20T19:01:55.658Z,2432.00
2023-01-20T19:02:55.543Z,2428.00
2023-01-20T19:46:55.937Z,2336.00
2023-01-20T20:07:51.430Z,2293.00
2023-01-20T20:08:51.360Z,2291.00
2023-01-20T20:09:51.274Z,2287.00
2023-01-20T20:10:51.214Z,2284.00
2023-01-20T20:11:51.123Z,2273.00
2023-01-20T20:12:51.046Z,2265.00
2023-01-20T20:13:50.973Z,2263.00
2023-01-20T20:14:50.899Z,2260.00
2023-01-20T20:15:50.857Z,2264.00
2023-01-20T20:16:50.766Z,2261.00
2023-01-20T20:17:50.664Z,2257.00
2023-01-20T20:18:50.580Z,2255.00
2023-01-20T20:19:50.521Z,2254.00
2023-01-20T20:20:50.431Z,2253.00
2023-01-20T20:21:50.363Z,2252.00
2023-01-20T20:22:50.296Z,2253.00
2023-01-20T20:23:50.199Z,2251.00
2023-01-20T20:24:50.137Z,2251.00
2023-01-20T20:25:50.050Z,2252.00
2023-01-20T20:26:49.996Z,2250.00
2023-01-20T20:27:49.916Z,2248.00
2023-01-20T20:28:49.834Z,2247.00
2023-01-20T20:29:49.765Z,2245.00
2023-01-20T20:30:49.799Z,2239.00
2023-01-20T20:31:49.723Z,2239.00
2023-01-20T20:32:49.530Z,2239.00
2023-01-20T20:33:49.470Z,2230.00
2023-01-20T20:34:49.399Z,2228.00
2023-01-20T20:35:49.311Z,2228.00
2023-01-20T20:36:49.278Z,2227.00
2023-01-20T20:37:49.157Z,2224.00
2023-01-20T20:38:51.117Z,2224.00
2023-01-20T20:39:49.003Z,2221.00
2023-01-20T20:40:48.938Z,2222.00
2023-01-20T20:41:48.886Z,2218.00
2023-01-20T20:42:48.810Z,2215.00
2023-01-20T20:43:48.782Z,2212.00
2023-01-20T20:44:48.721Z,2210.00
2023-01-20T20:45:48.642Z,2210.00
2023-01-20T20:46:48.649Z,2204.00
2023-01-20T20:47:48.529Z,2200.00
2023-01-20T20:48:48.464Z,2199.00
2023-01-20T20:49:48.378Z,2197.00
2023-01-20T20:50:48.367Z,2191.00
2023-01-20T20:51:48.250Z,2191.00
2023-01-20T20:52:48.199Z,2188.00
2023-01-20T20:53:48.115Z,2188.00
2023-01-20T20:54:48.062Z,2191.00
2023-01-20T20:55:47.985Z,2189.00
2023-01-20T20:56:47.916Z,2188.00
2023-01-20T20:57:47.878Z,2186.00
2023-01-20T20:59:00.439Z,2182.00
2023-01-20T20:59:58.919Z,2178.00
2023-01-20T21:00:48.611Z,2175.00
2023-01-20T21:01:47.584Z,2175.00
2023-01-20T21:02:47.508Z,2173.00
2023-01-20T21:03:47.387Z,2168.00
2023-01-20T21:04:47.301Z,2170.00
2023-01-20T21:05:47.229Z,2171.00
2023-01-20T21:06:47.155Z,2169.00
2023-01-20T21:07:47.070Z,2170.00
2023-01-20T21:08:46.998Z,2171.00
2023-01-20T21:09:46.900Z,2171.00
2023-01-20T21:10:46.831Z,2172.00
2023-01-20T21:11:46.764Z,2171.00
2023-01-20T21:12:46.690Z,2166.00
2023-01-20T21:13:46.608Z,2162.00
2023-01-20T21:14:46.540Z,2158.00
2023-01-20T21:15:46.472Z,2157.00
2023-01-20T21:16:46.420Z,2153.00
2023-01-20T21:17:46.485Z,2147.00
2023-01-20T21:18:46.252Z,2142.00
2023-01-20T21:19:46.149Z,2138.00
2023-01-20T21:20:46.962Z,2136.00
2023-01-20T21:21:45.992Z,2138.00
2023-01-20T21:22:45.910Z,2135.00
2023-01-20T21:23:45.830Z,2132.00
2023-01-20T21:24:45.752Z,2129.00
2023-01-20T21:25:45.687Z,2130.00
2023-01-20T21:26:45.609Z,2128.00
2023-01-20T21:27:45.541Z,2128.00
2023-01-20T21:44:44.272Z,2098.00
2023-01-20T21:45:44.190Z,2095.00
2023-01-20T21:46:44.134Z,2098.00
2023-01-20T21:47:44.053Z,2096.00
2023-01-20T21:48:43.964Z,2096.00
2023-01-20T21:49:43.890Z,2096.00
2023-01-20T21:50:43.864Z,2092.00
2023-01-20T21:51:43.745Z,2089.00
2023-01-20T21:52:43.689Z,2086.00
2023-01-20T21:53:43.598Z,2084.00
2023-01-20T21:54:43.527Z,2081.00
2023-01-20T21:55:43.456Z,2080.00
2023-01-20T21:56:43.391Z,2078.00
2023-01-20T21:57:43.323Z,2074.00
2023-01-20T21:58:43.238Z,2071.00
2023-01-20T21:59:43.225Z,2069.00
2023-01-20T22:00:43.132Z,2066.00
2023-01-20T22:01:43.041Z,2059.00
2023-01-20T22:02:42.943Z,2058.00
2023-01-20T22:03:42.872Z,2057.00
2023-01-20T22:04:42.803Z,2057.00
2023-01-20T22:05:42.721Z,2054.00
2023-01-20T22:06:42.665Z,2055.00
2023-01-20T22:07:42.570Z,2052.00
2023-01-20T22:08:42.497Z,2049.00
2023-01-20T22:09:42.423Z,2050.00
2023-01-20T22:10:42.344Z,2047.00
2023-01-20T22:11:42.259Z,2047.00
2023-01-20T22:12:42.204Z,2043.00
2023-01-20T22:13:42.113Z,2040.00
2023-01-20T22:14:42.042Z,2037.00
2023-01-20T22:15:42.053Z,2039.00
2023-01-20T22:16:41.921Z,2037.00
2023-01-20T22:17:41.834Z,2032.00
2023-01-20T22:18:41.833Z,2030.00
2023-01-20T22:19:41.742Z,2025.00
2023-01-20T22:20:41.585Z,2022.00
2023-01-20T22:21:41.523Z,2024.00
2023-01-20T22:22:41.443Z,2023.00
2023-01-20T22:23:41.356Z,2024.00
2023-01-20T22:24:41.292Z,2023.00
2023-01-20T22:25:41.239Z,2023.00
2023-01-20T22:26:41.171Z,2021.00
2023-01-20T22:27:41.060Z,2019.00
2023-01-20T22:28:40.989Z,2020.00
2023-01-20T22:29:40.915Z,2020.00
2023-01-20T22:30:40.851Z,2019.00
2023-01-20T22:31:40.872Z,2016.00
2023-01-20T22:32:40.672Z,2015.00
2023-01-20T22:33:40.603Z,2013.00
2023-01-20T22:34:40.536Z,2011.00
2023-01-20T22:35:40.466Z,2010.00
2023-01-20T22:36:40.379Z,2004.00
2023-01-20T22:37:40.318Z,1999.00
2023-01-20T22:38:40.250Z,1997.00
2023-01-20T22:39:40.180Z,1991.00
2023-01-20T22:40:40.109Z,1992.00
2023-01-20T22:41:40.035Z,1992.00
2023-01-20T22:42:39.955Z,1991.00
2023-01-20T22:43:39.876Z,1992.00
2023-01-20T22:44:39.798Z,1995.00
2023-01-20T22:45:39.759Z,1994.00
2023-01-20T22:46:39.669Z,1990.00
2023-01-20T22:47:39.596Z,1994.00
2023-01-20T22:48:39.514Z,1995.00
2023-01-20T22:49:39.443Z,1992.00
2023-01-20T22:50:39.357Z,1990.00
2023-01-20T22:51:39.286Z,1986.00
2023-01-20T22:52:39.293Z,1983.00
2023-01-20T22:53:39.154Z,1984.00
2023-01-20T22:54:39.074Z,1988.00
2023-01-20T22:55:49.008Z,1986.00
2023-01-20T22:56:39.937Z,1981.00
2023-01-20T22:57:38.854Z,1979.00
2023-01-20T22:58:38.791Z,1980.00
2023-01-20T22:59:38.714Z,1976.00
2023-01-20T23:00:38.639Z,1972.00
2023-01-20T23:01:38.564Z,1974.00
2023-01-20T23:02:38.535Z,1974.00
2023-01-20T23:03:38.418Z,1969.00
2023-01-20T23:04:38.329Z,1969.00
2023-01-20T23:05:40.755Z,1967.00
2023-01-20T23:06:38.353Z,1964.00
2023-01-20T23:07:38.293Z,1961.00
2023-01-20T23:08:38.227Z,1959.00
2023-01-20T23:09:38.188Z,1956.00
2023-01-20T23:10:38.120Z,1953.00
2023-01-20T23:11:38.140Z,1955.00
2023-01-20T23:12:38.095Z,1949.00
2023-01-20T23:13:37.943Z,1953.00
2023-01-20T23:14:37.893Z,1952.00
2023-01-20T23:15:37.825Z,1950.00
2023-01-20T23:16:37.810Z,1947.00
2023-01-20T23:17:37.722Z,1945.00
2023-01-20T23:18:37.666Z,1939.00
2023-01-20T23:19:37.606Z,1937.00
2023-01-20T23:20:37.610Z,1930.00
2023-01-20T23:21:37.482Z,1928.00
2023-01-20T23:22:37.417Z,1926.00
2023-01-20T23:23:37.366Z,1929.00
2023-01-20T23:24:37.333Z,1930.00
2023-01-20T23:25:37.251Z,1929.00
2023-01-20T23:26:37.199Z,1926.00
2023-01-20T23:27:37.135Z,1922.00
2023-01-20T23:28:37.107Z,1920.00
2023-01-20T23:29:37.515Z,1915.00
2023-01-20T23:30:36.961Z,1912.00
2023-01-20T23:31:37.099Z,1913.00
2023-01-20T23:32:36.851Z,1911.00
2023-01-20T23:33:36.795Z,1912.00
2023-01-20T23:34:36.757Z,1912.00
2023-01-20T23:35:36.670Z,1913.00
2023-01-20T23:36:36.627Z,1911.00
2023-01-20T23:37:36.557Z,1911.00
2023-01-20T23:38:36.564Z,1913.00
2023-01-20T23:39:36.435Z,1913.00
2023-01-20T23:40:36.437Z,1909.00
2023-01-20T23:41:36.326Z,1910.00
2023-01-20T23:42:36.294Z,1907.00
2023-01-20T23:43:36.213Z,1904.00
2023-01-20T23:44:36.154Z,1898.00
2023-01-20T23:45:36.168Z,1897.00
2023-01-20T23:46:36.030Z,1892.00
2023-01-20T23:47:35.997Z,1891.00
2023-01-20T23:48:35.917Z,1892.00
2023-01-20T23:49:35.855Z,1892.00
2023-01-20T23:50:35.809Z,1889.00
2023-01-20T23:51:35.758Z,1887.00
2023-01-20T23:52:35.700Z,1887.00
2023-01-20T23:53:35.647Z,1883.00
2023-01-20T23:54:35.604Z,1883.00
2023-01-20T23:55:35.546Z,1890.00
2023-01-20T23:56:35.501Z,1891.00
2023-01-20T23:57:36.023Z,1889.00
2023-01-20T23:58:35.379Z,1884.00
2023-01-20T23:59:35.351Z,1880.00
